createdAt,value
2019-01-02T00:00:13.011Z,1010.44
2019-01-02T00:01:13.002Z,1010.44
2019-01-02T00:02:13.024Z,1010.43
2019-01-02T00:03:12.979Z,1010.46
2019-01-02T00:04:12.975Z,1010.40
2019-01-02T00:05:12.952Z,1010.46
2019-01-02T00:06:12.939Z,1010.43
2019-01-02T00:07:12.931Z,1010.43
2019-01-02T00:08:12.924Z,1010.46
2019-01-02T00:09:12.905Z,1010.39
2019-01-02T00:10:12.895Z,1010.44
2019-01-02T00:11:12.889Z,1010.48
2019-01-02T00:12:12.873Z,1010.43
2019-01-02T00:13:12.867Z,1010.41
2019-01-02T00:14:12.853Z,1010.47
2019-01-02T00:15:12.846Z,1010.47
2019-01-02T00:16:12.830Z,1010.50
2019-01-02T00:17:12.819Z,1010.48
2019-01-02T00:18:12.807Z,1010.42
2019-01-02T00:19:12.797Z,1010.45
2019-01-02T00:20:12.787Z,1010.42
2019-01-02T00:21:12.778Z,1010.53
2019-01-02T00:22:12.764Z,1010.58
2019-01-02T00:23:12.756Z,1010.56
2019-01-02T00:24:12.742Z,1010.45
2019-01-02T00:25:12.731Z,1010.56
2019-01-02T00:26:12.726Z,1010.51
2019-01-02T00:27:12.709Z,1010.44
2019-01-02T00:28:12.699Z,1010.58
2019-01-02T00:29:12.688Z,1010.57
2019-01-02T00:30:12.676Z,1010.52
2019-01-02T00:31:12.665Z,1010.56
2019-01-02T00:32:12.657Z,1010.53
2019-01-02T00:33:12.642Z,1010.48
2019-01-02T00:34:12.630Z,1010.54
2019-01-02T00:35:12.618Z,1010.58
2019-01-02T00:36:12.612Z,1010.59
2019-01-02T00:37:12.601Z,1010.60
2019-01-02T00:38:12.592Z,1010.51
2019-01-02T00:39:12.584Z,1010.61
2019-01-02T00:40:12.578Z,1010.57
2019-01-02T00:41:12.553Z,1010.54
2019-01-02T00:42:12.542Z,1010.56
2019-01-02T00:43:12.531Z,1010.65
2019-01-02T00:44:12.521Z,1010.61
2019-01-02T00:45:12.508Z,1010.65
2019-01-02T00:46:12.497Z,1010.61
2019-01-02T00:47:12.487Z,1010.63
2019-01-02T00:48:12.474Z,1010.63
2019-01-02T00:49:12.470Z,1010.65
2019-01-02T00:50:12.456Z,1010.65
2019-01-02T00:51:12.442Z,1010.66
2019-01-02T00:52:12.430Z,1010.60
2019-01-02T00:53:12.427Z,1010.61
2019-01-02T00:54:12.415Z,1010.75
2019-01-02T00:55:12.400Z,1010.70
2019-01-02T00:56:12.387Z,1010.64
2019-01-02T00:57:12.376Z,1010.76
2019-01-02T00:58:12.365Z,1010.76
2019-01-02T00:59:12.355Z,1010.78
2019-01-02T01:00:12.348Z,1010.79
2019-01-02T01:01:12.337Z,1010.79
2019-01-02T01:02:12.326Z,1010.81
2019-01-02T01:03:12.315Z,1010.79
2019-01-02T01:04:12.299Z,1010.78
2019-01-02T01:05:12.286Z,1010.82
2019-01-02T01:06:12.277Z,1010.83
2019-01-02T01:07:12.265Z,1010.78
2019-01-02T01:08:12.253Z,1010.77
2019-01-02T01:09:12.247Z,1010.80
2019-01-02T01:10:12.232Z,1010.78
2019-01-02T01:11:12.220Z,1010.81
2019-01-02T01:12:12.209Z,1010.74
2019-01-02T01:13:12.198Z,1010.75
2019-01-02T01:14:12.193Z,1010.77
2019-01-02T01:15:12.177Z,1010.77
2019-01-02T01:16:12.170Z,1010.79
2019-01-02T01:17:12.153Z,1010.86
2019-01-02T01:18:12.148Z,1010.92
2019-01-02T01:19:12.129Z,1010.80
2019-01-02T01:20:12.122Z,1010.87
2019-01-02T01:21:12.111Z,1010.86
2019-01-02T01:22:12.098Z,1010.96
2019-01-02T01:23:12.086Z,1010.99
2019-01-02T01:24:12.073Z,1010.95
2019-01-02T01:25:12.061Z,1011.03
2019-01-02T01:26:12.050Z,1011.05
2019-01-02T01:27:12.041Z,1011.01
2019-01-02T01:28:12.028Z,1010.99
2019-01-02T01:29:12.018Z,1011.00
2019-01-02T01:30:12.011Z,1011.05
2019-01-02T01:31:11.995Z,1011.07
2019-01-02T01:32:11.983Z,1010.98
2019-01-02T01:33:11.978Z,1011.02
2019-01-02T01:34:11.965Z,1011.05
2019-01-02T01:35:11.950Z,1011.00
2019-01-02T01:36:11.938Z,1011.00
2019-01-02T01:37:11.928Z,1011.06
2019-01-02T01:38:11.917Z,1011.02
2019-01-02T01:39:11.904Z,1011.03
2019-01-02T01:40:11.893Z,1011.05
2019-01-02T01:41:11.889Z,1011.09
2019-01-02T01:42:11.870Z,1011.02
2019-01-02T01:43:11.859Z,1011.03
2019-01-02T01:44:11.849Z,1011.08
2019-01-02T01:45:11.839Z,1011.05
2019-01-02T01:46:11.829Z,1011.10
2019-01-02T01:47:11.814Z,1011.07
2019-01-02T01:48:11.809Z,1011.12
2019-01-02T01:49:11.791Z,1011.02
2019-01-02T01:50:11.780Z,1011.04
2019-01-02T01:51:11.770Z,1011.07
2019-01-02T01:52:11.762Z,1011.09
2019-01-02T01:53:11.746Z,1011.04
2019-01-02T01:54:11.738Z,1011.11
2019-01-02T01:55:11.724Z,1011.09
2019-01-02T01:56:11.719Z,1011.07
2019-01-02T01:57:11.702Z,1011.10
2019-01-02T01:58:11.692Z,1011.08
2019-01-02T01:59:11.679Z,1011.10
2019-01-02T02:00:11.668Z,1011.11
2019-01-02T02:01:11.657Z,1011.17
2019-01-02T02:02:11.644Z,1011.12
2019-01-02T02:03:11.641Z,1011.14
2019-01-02T02:04:11.623Z,1011.07
2019-01-02T02:05:11.614Z,1011.12
2019-01-02T02:06:11.603Z,1011.12
2019-01-02T02:07:11.593Z,1011.07
2019-01-02T02:08:11.576Z,1011.05
2019-01-02T02:09:11.569Z,1011.15
2019-01-02T02:10:11.563Z,1011.08
2019-01-02T02:11:11.546Z,1011.11
2019-01-02T02:12:11.535Z,1011.10
2019-01-02T02:13:11.522Z,1011.13
2019-01-02T02:14:11.510Z,1011.12
2019-01-02T02:15:11.506Z,1011.16
2019-01-02T02:16:11.488Z,1011.14
2019-01-02T02:17:11.482Z,1011.14
2019-01-02T02:18:11.463Z,1011.15
2019-01-02T02:19:11.456Z,1011.23
2019-01-02T02:20:11.447Z,1011.20
2019-01-02T02:21:11.438Z,1011.26
2019-01-02T02:22:11.419Z,1011.25
2019-01-02T02:23:11.408Z,1011.23
2019-01-02T02:24:11.396Z,1011.32
2019-01-02T02:25:11.393Z,1011.20
2019-01-02T02:26:11.374Z,1011.28
2019-01-02T02:27:11.361Z,1011.25
2019-01-02T02:28:11.357Z,1011.32
2019-01-02T02:29:11.338Z,1011.34
2019-01-02T02:30:11.329Z,1011.29
2019-01-02T02:31:11.316Z,1011.33
2019-01-02T02:32:11.306Z,1011.38
2019-01-02T02:33:11.295Z,1011.36
2019-01-02T02:34:11.285Z,1011.42
2019-01-02T02:35:11.272Z,1011.45
2019-01-02T02:36:11.259Z,1011.39
2019-01-02T02:37:11.254Z,1011.40
2019-01-02T02:38:11.239Z,1011.49
2019-01-02T02:39:11.227Z,1011.40
2019-01-02T02:40:11.216Z,1011.56
2019-01-02T02:41:11.207Z,1011.44
2019-01-02T02:42:11.193Z,1011.48
2019-01-02T02:43:11.181Z,1011.46
2019-01-02T02:44:11.176Z,1011.45
2019-01-02T02:45:11.159Z,1011.51
2019-01-02T02:46:11.146Z,1011.41
2019-01-02T02:47:11.139Z,1011.42
2019-01-02T02:48:11.124Z,1011.56
2019-01-02T02:49:11.115Z,1011.46
2019-01-02T02:50:11.107Z,1011.48
2019-01-02T02:51:11.093Z,1011.48
2019-01-02T02:52:11.081Z,1011.49
2019-01-02T02:53:11.070Z,1011.45
2019-01-02T02:54:11.056Z,1011.42
2019-01-02T02:55:11.047Z,1011.46
2019-01-02T02:56:11.034Z,1011.52
2019-01-02T02:57:11.023Z,1011.51
2019-01-02T02:58:11.011Z,1011.54
2019-01-02T02:59:11.004Z,1011.44
2019-01-02T03:00:11.022Z,1011.43
2019-01-02T03:01:10.980Z,1011.49
2019-01-02T03:02:10.974Z,1011.47
2019-01-02T03:03:10.954Z,1011.47
2019-01-02T03:04:10.943Z,1011.46
2019-01-02T03:05:10.939Z,1011.47
2019-01-02T03:06:10.926Z,1011.50
2019-01-02T03:07:10.910Z,1011.52
2019-01-02T03:08:10.899Z,1011.59
2019-01-02T03:09:10.887Z,1011.47
2019-01-02T03:10:10.875Z,1011.58
2019-01-02T03:11:10.872Z,1011.57
2019-01-02T03:12:10.853Z,1011.55
2019-01-02T03:13:10.850Z,1011.50
2019-01-02T03:14:10.833Z,1011.55
2019-01-02T03:15:10.817Z,1011.58
2019-01-02T03:16:10.812Z,1011.60
2019-01-02T03:17:10.799Z,1011.52
2019-01-02T03:18:10.787Z,1011.68
2019-01-02T03:19:10.773Z,1011.67
2019-01-02T03:20:10.763Z,1011.59
2019-01-02T03:21:10.755Z,1011.70
2019-01-02T03:22:10.740Z,1011.68
2019-01-02T03:23:10.732Z,1011.70
2019-01-02T03:24:10.721Z,1011.80
2019-01-02T03:25:10.710Z,1011.72
2019-01-02T03:26:10.700Z,1011.72
2019-01-02T03:27:10.684Z,1011.76
2019-01-02T03:28:10.673Z,1011.76
2019-01-02T03:29:10.763Z,1011.72
2019-01-02T03:30:10.680Z,1011.77
2019-01-02T03:31:10.640Z,1011.77
2019-01-02T03:32:10.630Z,1011.88
2019-01-02T03:33:10.616Z,1011.80
2019-01-02T03:34:10.605Z,1011.89
2019-01-02T03:35:10.592Z,1011.89
2019-01-02T03:36:10.581Z,1011.96
2019-01-02T03:37:10.571Z,1011.91
2019-01-02T03:38:10.563Z,1011.99
2019-01-02T03:39:10.552Z,1011.97
2019-01-02T03:40:10.538Z,1011.98
2019-01-02T03:41:10.525Z,1012.02
2019-01-02T03:42:10.516Z,1012.00
2019-01-02T03:43:10.504Z,1012.03
2019-01-02T03:44:10.496Z,1011.96
2019-01-02T03:45:10.479Z,1011.98
2019-01-02T03:46:10.468Z,1011.98
2019-01-02T03:47:10.458Z,1012.01
2019-01-02T03:48:10.448Z,1011.95
2019-01-02T03:49:10.437Z,1011.94
2019-01-02T03:50:10.425Z,1011.89
2019-01-02T03:51:10.413Z,1011.98
2019-01-02T03:52:10.402Z,1011.90
2019-01-02T03:53:10.396Z,1011.86
2019-01-02T03:54:10.378Z,1011.84
2019-01-02T03:55:10.366Z,1011.84
2019-01-02T03:56:10.360Z,1011.75
2019-01-02T03:57:10.344Z,1011.89
2019-01-02T03:58:10.336Z,1011.90
2019-01-02T03:59:10.322Z,1011.90
2019-01-02T04:00:10.309Z,1011.97
2019-01-02T04:01:10.302Z,1012.04
2019-01-02T04:02:10.291Z,1011.98
2019-01-02T04:03:10.277Z,1012.00
2019-01-02T04:04:10.264Z,1012.04
2019-01-02T04:05:10.255Z,1012.11
2019-01-02T04:06:10.241Z,1012.02
2019-01-02T04:07:10.232Z,1011.96
2019-01-02T04:08:10.225Z,1012.08
2019-01-02T04:09:10.216Z,1012.12
2019-01-02T04:10:10.197Z,1012.10
2019-01-02T04:11:10.185Z,1012.13
2019-01-02T04:12:10.174Z,1012.07
2019-01-02T04:13:10.165Z,1012.08
2019-01-02T04:14:10.158Z,1012.08
2019-01-02T04:15:10.148Z,1012.13
2019-01-02T04:16:10.134Z,1012.12
2019-01-02T04:17:10.122Z,1012.19
2019-01-02T04:18:10.108Z,1012.13
2019-01-02T04:19:10.096Z,1012.24
2019-01-02T04:20:10.089Z,1012.29
2019-01-02T04:21:10.075Z,1012.22
2019-01-02T04:22:10.064Z,1012.37
2019-01-02T04:23:10.050Z,1012.32
2019-01-02T04:24:10.041Z,1012.37
2019-01-02T04:25:10.030Z,1012.29
2019-01-02T04:26:10.015Z,1012.35
2019-01-02T04:27:10.005Z,1012.38
2019-01-02T04:28:09.997Z,1012.37
2019-01-02T04:29:09.983Z,1012.40
2019-01-02T04:30:09.972Z,1012.40
2019-01-02T04:31:09.966Z,1012.47
2019-01-02T04:32:10.448Z,1012.47
2019-01-02T04:33:09.941Z,1012.48
2019-01-02T04:34:09.926Z,1012.56
2019-01-02T04:35:09.916Z,1012.56
2019-01-02T04:36:09.903Z,1012.65
2019-01-02T04:37:09.894Z,1012.65
2019-01-02T04:38:09.882Z,1012.66
2019-01-02T04:39:09.870Z,1012.69
2019-01-02T04:40:10.496Z,1012.73
2019-01-02T04:41:09.896Z,1012.72
2019-01-02T04:42:09.836Z,1012.78
2019-01-02T04:44:09.817Z,1012.73
2019-01-02T04:45:09.801Z,1012.74
2019-01-02T04:46:09.790Z,1012.72
2019-01-02T04:47:09.780Z,1012.81
2019-01-02T04:48:09.770Z,1012.86
2019-01-02T04:49:09.758Z,1012.75
2019-01-02T04:50:09.746Z,1012.84
2019-01-02T04:51:09.736Z,1012.87
2019-01-02T04:52:09.724Z,1012.77
2019-01-02T04:53:09.714Z,1012.82
2019-01-02T04:54:09.701Z,1012.81
2019-01-02T04:55:09.697Z,1012.78
2019-01-02T04:56:09.677Z,1012.84
2019-01-02T04:57:09.670Z,1012.81
2019-01-02T04:58:09.659Z,1012.85
2019-01-02T04:59:09.647Z,1012.93
2019-01-02T05:00:09.633Z,1012.93
2019-01-02T05:01:09.620Z,1012.93
2019-01-02T05:02:09.612Z,1012.94
2019-01-02T05:03:09.604Z,1012.85
2019-01-02T05:04:09.587Z,1012.99
2019-01-02T05:06:09.583Z,1013.02
2019-01-02T05:07:09.586Z,1013.07
2019-01-02T05:08:09.589Z,1013.04
2019-01-02T05:09:09.537Z,1013.01
2019-01-02T05:10:09.536Z,1013.09
2019-01-02T05:11:09.536Z,1013.12
2019-01-02T05:12:09.540Z,1013.15
2019-01-02T05:14:09.479Z,1013.15
2019-01-02T05:15:09.469Z,1013.16
2019-01-02T05:16:09.452Z,1013.26
2019-01-02T05:17:09.442Z,1013.15
2019-01-02T05:18:09.430Z,1013.17
2019-01-02T05:19:09.424Z,1013.21
2019-01-02T05:20:09.413Z,1013.28
2019-01-02T05:21:09.395Z,1013.22
2019-01-02T05:22:09.384Z,1013.30
2019-01-02T05:23:09.374Z,1013.23
2019-01-02T05:24:09.360Z,1013.27
2019-01-02T05:25:09.357Z,1013.30
2019-01-02T05:26:09.339Z,1013.31
2019-01-02T05:27:09.327Z,1013.32
2019-01-02T05:28:09.318Z,1013.36
2019-01-02T05:29:09.309Z,1013.42
2019-01-02T05:30:09.297Z,1013.34
2019-01-02T05:31:09.283Z,1013.36
2019-01-02T05:32:09.272Z,1013.43
2019-01-02T05:33:09.269Z,1013.38
2019-01-02T05:34:09.251Z,1013.40
2019-01-02T05:35:09.239Z,1013.44
2019-01-02T05:36:09.230Z,1013.39
2019-01-02T05:37:09.216Z,1013.45
2019-01-02T05:38:09.202Z,1013.46
2019-01-02T05:39:09.200Z,1013.47
2019-01-02T05:40:09.182Z,1013.50
2019-01-02T05:41:09.171Z,1013.51
2019-01-02T05:42:09.158Z,1013.52
2019-01-02T05:43:09.151Z,1013.51
2019-01-02T05:44:09.136Z,1013.47
2019-01-02T05:45:09.126Z,1013.66
2019-01-02T05:46:09.111Z,1013.56
2019-01-02T05:47:09.107Z,1013.61
2019-01-02T05:48:09.091Z,1013.63
2019-01-02T05:49:09.081Z,1013.70
2019-01-02T05:50:09.067Z,1013.71
2019-01-02T05:51:09.056Z,1013.67
2019-01-02T05:52:09.045Z,1013.74
2019-01-02T05:53:09.036Z,1013.76
2019-01-02T05:55:09.009Z,1013.78
2019-01-02T05:56:09.016Z,1013.79
2019-01-02T05:57:08.987Z,1013.83
2019-01-02T05:58:08.977Z,1013.81
2019-01-02T05:59:08.966Z,1013.87
2019-01-02T06:00:08.953Z,1013.81
2019-01-02T06:01:08.948Z,1013.84
2019-01-02T06:02:08.937Z,1013.86
2019-01-02T06:03:08.926Z,1013.90
2019-01-02T06:04:08.912Z,1013.96
2019-01-02T06:05:08.901Z,1013.96
2019-01-02T06:06:08.885Z,1014.00
2019-01-02T06:07:08.876Z,1014.00
2019-01-02T06:08:08.864Z,1014.03
2019-01-02T06:09:08.853Z,1013.96
2019-01-02T06:10:08.841Z,1013.92
2019-01-02T06:11:08.829Z,1013.95
2019-01-02T06:12:08.818Z,1014.02
2019-01-02T06:13:08.811Z,1014.05
2019-01-02T06:14:08.794Z,1014.09
2019-01-02T06:15:08.789Z,1014.15
2019-01-02T06:16:08.772Z,1014.08
2019-01-02T06:18:08.750Z,1014.19
2019-01-02T06:19:08.738Z,1014.21
2019-01-02T06:20:08.732Z,1014.21
2019-01-02T06:21:08.717Z,1014.28
2019-01-02T06:22:08.704Z,1014.30
2019-01-02T06:23:08.701Z,1014.29
2019-01-02T06:24:08.682Z,1014.39
2019-01-02T06:25:08.687Z,1014.30
2019-01-02T06:26:08.661Z,1014.32
2019-01-02T06:27:08.651Z,1014.36
2019-01-02T06:28:08.645Z,1014.35
2019-01-02T06:29:08.630Z,1014.30
2019-01-02T06:30:08.616Z,1014.33
2019-01-02T06:31:08.605Z,1014.33
2019-01-02T06:32:08.599Z,1014.51
2019-01-02T06:33:08.581Z,1014.50
2019-01-02T06:34:08.570Z,1014.32
2019-01-02T06:35:08.562Z,1014.62
2019-01-02T06:36:08.552Z,1014.51
2019-01-02T06:37:08.536Z,1014.60
2019-01-02T06:38:08.527Z,1014.53
2019-01-02T06:39:08.514Z,1014.54
2019-01-02T06:40:08.504Z,1014.63
2019-01-02T06:41:08.492Z,1014.74
2019-01-02T06:42:08.482Z,1014.76
2019-01-02T06:43:08.476Z,1014.58
2019-01-02T06:44:08.476Z,1014.49
2019-01-02T06:45:08.449Z,1014.78
2019-01-02T06:46:08.440Z,1014.73
2019-01-02T06:47:08.429Z,1014.78
2019-01-02T06:48:08.416Z,1014.76
2019-01-02T06:49:08.403Z,1014.78
2019-01-02T06:50:08.393Z,1014.78
2019-01-02T06:51:08.383Z,1014.75
2019-01-02T06:52:08.370Z,1014.70
2019-01-02T06:53:08.366Z,1014.69
2019-01-02T06:54:08.348Z,1014.87
2019-01-02T06:55:08.338Z,1014.96
2019-01-02T06:56:08.327Z,1014.94
2019-01-02T06:57:08.314Z,1014.91
2019-01-02T06:58:08.304Z,1014.95
2019-01-02T06:59:08.291Z,1015.02
2019-01-02T07:00:08.280Z,1015.05
2019-01-02T07:01:08.267Z,1015.15
2019-01-02T07:02:08.257Z,1015.03
2019-01-02T07:03:08.246Z,1015.10
2019-01-02T07:04:08.242Z,1015.17
2019-01-02T07:05:08.224Z,1015.15
2019-01-02T07:06:08.215Z,1015.14
2019-01-02T07:07:08.232Z,1015.19
2019-01-02T07:08:08.191Z,1015.17
2019-01-02T07:09:08.213Z,1015.33
2019-01-02T07:10:08.168Z,1015.25
2019-01-02T07:11:08.155Z,1015.27
2019-01-02T07:12:08.145Z,1015.30
2019-01-02T07:13:08.132Z,1015.38
2019-01-02T07:14:08.124Z,1015.41
2019-01-02T07:15:08.109Z,1015.28
2019-01-02T07:16:08.099Z,1015.28
2019-01-02T07:17:08.093Z,1015.43
2019-01-02T07:18:08.083Z,1015.47
2019-01-02T07:19:08.064Z,1015.42
2019-01-02T07:20:08.059Z,1015.49
2019-01-02T07:21:08.043Z,1015.47
2019-01-02T07:22:08.031Z,1015.54
2019-01-02T07:23:08.021Z,1015.54
2019-01-02T07:24:08.008Z,1015.67
2019-01-02T07:25:08.000Z,1015.66
2019-01-02T07:26:08.026Z,1015.65
2019-01-02T07:27:07.976Z,1015.64
2019-01-02T07:28:07.964Z,1015.69
2019-01-02T07:29:07.961Z,1015.73
2019-01-02T07:30:07.942Z,1015.70
2019-01-02T07:31:07.933Z,1015.85
2019-01-02T07:32:07.923Z,1015.88
2019-01-02T07:33:07.910Z,1015.77
2019-01-02T07:34:07.898Z,1015.81
2019-01-02T07:35:07.887Z,1015.89
2019-01-02T07:36:07.876Z,1015.85
2019-01-02T07:37:07.864Z,1015.85
2019-01-02T07:38:07.853Z,1015.85
2019-01-02T07:39:07.885Z,1015.92
2019-01-02T07:40:07.831Z,1015.83
2019-01-02T07:41:07.819Z,1016.00
2019-01-02T07:42:07.809Z,1015.96
2019-01-02T07:43:07.801Z,1015.99
2019-01-02T07:44:07.787Z,1015.93
2019-01-02T07:45:07.779Z,1015.95
2019-01-02T07:46:07.764Z,1015.99
2019-01-02T07:47:07.754Z,1016.04
2019-01-02T07:48:07.740Z,1016.04
2019-01-02T07:49:07.728Z,1016.05
2019-01-02T07:50:07.720Z,1016.15
2019-01-02T07:51:07.707Z,1016.17
2019-01-02T07:52:07.696Z,1016.07
2019-01-02T07:53:07.689Z,1016.16
2019-01-02T07:54:07.673Z,1016.17
2019-01-02T07:55:07.667Z,1016.20
2019-01-02T07:56:07.651Z,1016.27
2019-01-02T07:57:07.639Z,1016.35
2019-01-02T07:58:07.630Z,1016.20
2019-01-02T07:59:07.620Z,1016.12
2019-01-02T08:00:07.608Z,1016.22
2019-01-02T08:01:07.595Z,1016.35
2019-01-02T08:02:07.589Z,1016.38
2019-01-02T08:03:07.575Z,1016.39
2019-01-02T08:04:07.567Z,1016.43
2019-01-02T08:05:07.552Z,1016.50
2019-01-02T08:06:07.542Z,1016.51
2019-01-02T08:07:07.533Z,1016.48
2019-01-02T08:08:07.521Z,1016.58
2019-01-02T08:09:07.509Z,1016.53
2019-01-02T08:10:07.494Z,1016.57
2019-01-02T08:11:07.486Z,1016.66
2019-01-02T08:12:07.473Z,1016.61
2019-01-02T08:13:07.461Z,1016.64
2019-01-02T08:14:07.450Z,1016.64
2019-01-02T08:15:07.446Z,1016.74
2019-01-02T08:16:07.436Z,1016.79
2019-01-02T08:17:07.416Z,1016.80
2019-01-02T08:18:07.404Z,1016.70
2019-01-02T08:19:07.395Z,1016.79
2019-01-02T08:20:07.386Z,1016.83
2019-01-02T08:21:07.373Z,1016.88
2019-01-02T08:22:07.411Z,1016.95
2019-01-02T08:23:07.350Z,1016.83
2019-01-02T08:24:07.339Z,1016.92
2019-01-02T08:25:07.330Z,1016.88
2019-01-02T08:26:07.317Z,1016.98
2019-01-02T08:27:07.308Z,1016.89
2019-01-02T08:28:07.315Z,1016.91
2019-01-02T08:29:07.284Z,1016.95
2019-01-02T08:30:07.272Z,1017.00
2019-01-02T08:31:07.274Z,1016.90
2019-01-02T08:32:07.249Z,1017.04
2019-01-02T08:33:07.237Z,1016.96
2019-01-02T08:34:07.227Z,1017.05
2019-01-02T08:35:07.217Z,1017.19
2019-01-02T08:36:07.211Z,1016.99
2019-01-02T08:37:07.197Z,1017.18
2019-01-02T08:38:07.186Z,1017.22
2019-01-02T08:39:07.178Z,1017.27
2019-01-02T08:40:07.164Z,1017.23
2019-01-02T08:41:07.156Z,1017.29
2019-01-02T08:42:07.143Z,1017.29
2019-01-02T08:43:07.128Z,1017.30
2019-01-02T08:44:07.116Z,1017.34
2019-01-02T08:45:07.105Z,1017.41
2019-01-02T08:46:07.094Z,1017.34
2019-01-02T08:47:07.086Z,1017.39
2019-01-02T08:48:07.074Z,1017.45
2019-01-02T08:49:07.063Z,1017.38
2019-01-02T08:50:07.051Z,1017.48
2019-01-02T08:51:07.043Z,1017.49
2019-01-02T08:52:07.030Z,1017.54
2019-01-02T08:53:07.015Z,1017.65
2019-01-02T08:54:07.006Z,1017.58
2019-01-02T08:55:07.001Z,1017.66
2019-01-02T08:56:06.985Z,1017.63
2019-01-02T08:57:06.975Z,1017.71
2019-01-02T08:58:06.967Z,1017.74
2019-01-02T08:59:06.957Z,1017.88
2019-01-02T09:00:06.942Z,1017.95
2019-01-02T09:01:06.927Z,1018.06
2019-01-02T09:02:06.915Z,1018.08
2019-01-02T09:03:06.908Z,1018.06
2019-01-02T09:04:08.291Z,1018.18
2019-01-02T09:05:06.881Z,1018.24
2019-01-02T09:07:06.860Z,1018.29
2019-01-02T09:08:06.851Z,1018.35
2019-01-02T09:09:06.841Z,1018.31
2019-01-02T09:10:06.835Z,1018.37
2019-01-02T09:11:06.815Z,1018.42
2019-01-02T09:12:06.812Z,1018.44
2019-01-02T09:13:06.794Z,1018.47
2019-01-02T09:14:06.782Z,1018.47
2019-01-02T09:15:06.771Z,1018.54
2019-01-02T09:16:06.767Z,1018.46
2019-01-02T09:17:06.750Z,1018.52
2019-01-02T09:18:06.738Z,1018.53
2019-01-02T09:19:06.728Z,1018.60
2019-01-02T09:20:06.716Z,1018.61
2019-01-02T09:21:06.704Z,1018.69
2019-01-02T09:22:06.694Z,1018.72
2019-01-02T09:23:06.681Z,1018.71
2019-01-02T09:24:06.671Z,1018.70
2019-01-02T09:25:06.660Z,1018.71
2019-01-02T09:26:06.654Z,1018.81
2019-01-02T09:27:06.638Z,1018.74
2019-01-02T09:28:06.625Z,1018.71
2019-01-02T09:29:06.616Z,1018.75
2019-01-02T09:30:06.604Z,1018.72
2019-01-02T09:31:06.596Z,1018.72
2019-01-02T09:32:06.585Z,1018.75
2019-01-02T09:33:06.579Z,1018.74
2019-01-02T09:34:06.566Z,1018.76
2019-01-02T09:35:06.549Z,1018.79
2019-01-02T09:36:06.541Z,1018.80
2019-01-02T09:37:06.527Z,1018.88
2019-01-02T09:38:06.517Z,1018.81
2019-01-02T09:39:06.507Z,1018.76
2019-01-02T09:40:06.492Z,1018.77
2019-01-02T09:41:06.485Z,1018.89
2019-01-02T09:42:06.473Z,1018.84
2019-01-02T09:43:06.463Z,1018.91
2019-01-02T09:44:06.448Z,1018.89
2019-01-02T09:45:06.446Z,1018.95
2019-01-02T09:46:06.429Z,1018.97
2019-01-02T09:47:06.415Z,1018.94
2019-01-02T09:48:06.496Z,1019.04
2019-01-02T09:49:06.394Z,1019.04
2019-01-02T09:50:06.434Z,1018.97
2019-01-02T09:51:06.369Z,1018.98
2019-01-02T09:52:06.359Z,1019.11
2019-01-02T09:53:06.347Z,1019.06
2019-01-02T09:54:06.336Z,1019.10
2019-01-02T09:55:06.325Z,1019.11
2019-01-02T09:56:06.313Z,1019.15
2019-01-02T09:57:06.307Z,1019.13
2019-01-02T09:58:06.297Z,1019.14
2019-01-02T09:59:06.281Z,1019.09
2019-01-02T10:00:06.269Z,1019.19
2019-01-02T10:01:06.257Z,1019.21
2019-01-02T10:02:06.247Z,1019.17
2019-01-02T10:03:06.234Z,1019.21
2019-01-02T10:04:06.224Z,1019.24
2019-01-02T10:05:06.213Z,1019.23
2019-01-02T10:06:06.201Z,1019.26
2019-01-02T10:07:06.211Z,1019.25
2019-01-02T10:08:06.181Z,1019.23
2019-01-02T10:09:06.170Z,1019.21
2019-01-02T10:10:06.159Z,1019.22
2019-01-02T10:11:06.167Z,1019.30
2019-01-02T10:12:06.136Z,1019.25
2019-01-02T10:13:06.126Z,1019.36
2019-01-02T10:14:06.113Z,1019.29
2019-01-02T10:15:06.104Z,1019.33
2019-01-02T10:16:06.093Z,1019.36
2019-01-02T10:17:06.080Z,1019.32
2019-01-02T10:18:06.069Z,1019.38
2019-01-02T10:19:06.056Z,1019.38
2019-01-02T10:20:06.048Z,1019.37
2019-01-02T10:21:06.044Z,1019.36
2019-01-02T10:22:06.026Z,1019.37
2019-01-02T10:23:06.014Z,1019.37
2019-01-02T10:24:06.007Z,1019.38
2019-01-02T10:25:05.997Z,1019.39
2019-01-02T10:26:05.984Z,1019.42
2019-01-02T10:27:05.968Z,1019.42
2019-01-02T10:28:05.963Z,1019.36
2019-01-02T10:29:05.948Z,1019.40
2019-01-02T10:30:05.935Z,1019.39
2019-01-02T10:31:05.924Z,1019.42
2019-01-02T10:32:05.918Z,1019.38
2019-01-02T10:33:05.903Z,1019.51
2019-01-02T10:34:05.896Z,1019.45
2019-01-02T10:35:05.881Z,1019.50
2019-01-02T10:36:05.870Z,1019.45
2019-01-02T10:37:05.862Z,1019.44
2019-01-02T10:38:05.855Z,1019.48
2019-01-02T10:39:05.835Z,1019.55
2019-01-02T10:40:05.828Z,1019.50
2019-01-02T10:41:05.818Z,1019.57
2019-01-02T10:42:05.808Z,1019.57
2019-01-02T10:43:05.794Z,1019.63
2019-01-02T10:44:05.781Z,1019.64
2019-01-02T10:45:05.772Z,1019.70
2019-01-02T10:46:05.759Z,1019.61
2019-01-02T10:47:05.755Z,1019.66
2019-01-02T10:48:05.736Z,1019.64
2019-01-02T10:49:05.736Z,1019.64
2019-01-02T10:50:05.737Z,1019.77
2019-01-02T10:51:05.740Z,1019.77
2019-01-02T10:52:05.751Z,1019.73
2019-01-02T10:53:05.689Z,1019.78
2019-01-02T10:54:05.689Z,1019.75
2019-01-02T10:55:05.691Z,1019.72
2019-01-02T10:56:05.695Z,1019.72
2019-01-02T10:57:05.636Z,1019.74
2019-01-02T10:58:05.623Z,1019.80
2019-01-02T10:59:05.616Z,1019.80
2019-01-02T11:00:05.615Z,1019.76
2019-01-02T11:01:05.590Z,1019.79
2019-01-02T11:02:05.581Z,1019.79
2019-01-02T11:03:05.570Z,1019.78
2019-01-02T11:04:05.559Z,1019.84
2019-01-02T11:05:05.551Z,1019.88
2019-01-02T11:06:05.540Z,1019.91
2019-01-02T11:07:05.524Z,1019.80
2019-01-02T11:08:05.516Z,1019.87
2019-01-02T11:09:05.499Z,1019.87
2019-01-02T11:10:05.489Z,1019.89
2019-01-02T11:11:05.477Z,1019.92
2019-01-02T11:12:05.465Z,1019.87
2019-01-02T11:13:05.456Z,1019.94
2019-01-02T11:14:05.448Z,1019.96
2019-01-02T11:15:05.436Z,1019.92
2019-01-02T11:16:05.424Z,1019.92
2019-01-02T11:17:05.415Z,1019.89
2019-01-02T11:18:05.399Z,1019.84
2019-01-02T11:19:05.389Z,1019.91
2019-01-02T11:20:05.380Z,1019.88
2019-01-02T11:21:05.367Z,1019.86
2019-01-02T11:22:05.364Z,1019.88
2019-01-02T11:23:05.344Z,1019.91
2019-01-02T11:24:05.332Z,1019.87
2019-01-02T11:25:05.321Z,1019.88
2019-01-02T11:26:05.311Z,1019.94
2019-01-02T11:27:05.303Z,1019.96
2019-01-02T11:28:05.289Z,1019.97
2019-01-02T11:29:05.277Z,1019.98
2019-01-02T11:30:05.265Z,1020.05
2019-01-02T11:31:05.252Z,1020.10
2019-01-02T11:32:05.243Z,1020.08
2019-01-02T11:33:05.231Z,1020.07
2019-01-02T11:34:05.220Z,1020.15
2019-01-02T11:35:05.208Z,1020.17
2019-01-02T11:36:05.205Z,1020.18
2019-01-02T11:37:05.186Z,1020.12
2019-01-02T11:38:05.182Z,1020.18
2019-01-02T11:39:05.166Z,1020.13
2019-01-02T11:40:05.154Z,1020.17
2019-01-02T11:41:05.141Z,1020.17
2019-01-02T11:42:05.130Z,1020.15
2019-01-02T11:43:05.118Z,1020.14
2019-01-02T11:44:05.108Z,1020.15
2019-01-02T11:45:05.096Z,1020.21
2019-01-02T11:46:05.085Z,1020.27
2019-01-02T11:47:05.077Z,1020.30
2019-01-02T11:48:05.067Z,1020.28
2019-01-02T11:49:05.056Z,1020.29
2019-01-02T11:50:05.040Z,1020.28
2019-01-02T11:51:05.031Z,1020.26
2019-01-02T11:52:05.021Z,1020.24
2019-01-02T11:53:05.015Z,1020.28
2019-01-02T11:54:04.999Z,1020.26
2019-01-02T11:55:04.983Z,1020.23
2019-01-02T11:56:04.978Z,1020.45
2019-01-02T11:57:04.961Z,1020.44
2019-01-02T11:58:04.951Z,1020.49
2019-01-02T11:59:04.939Z,1020.45
2019-01-02T12:00:04.926Z,1020.45
2019-01-02T12:01:04.918Z,1020.40
2019-01-02T12:02:04.905Z,1020.44
2019-01-02T12:03:04.894Z,1020.42
2019-01-02T12:04:04.889Z,1020.44
2019-01-02T12:05:04.874Z,1020.43
2019-01-02T12:06:04.863Z,1020.43
2019-01-02T12:07:04.850Z,1020.53
2019-01-02T12:08:04.838Z,1020.52
2019-01-02T12:09:04.829Z,1020.52
2019-01-02T12:10:04.824Z,1020.57
2019-01-02T12:11:04.811Z,1020.53